createdAt,value
2022-07-29T00:01:45.663Z,24.48
2022-07-29T00:04:12.909Z,24.45
2022-07-29T00:06:40.102Z,24.51
2022-07-29T00:09:06.896Z,24.49
2022-07-29T00:11:33.778Z,24.44
2022-07-29T00:14:00.277Z,24.44
2022-07-29T00:16:26.826Z,24.48
2022-07-29T00:18:53.389Z,24.33
2022-07-29T00:21:20.098Z,24.31
2022-07-29T00:23:46.715Z,24.31
2022-07-29T00:26:13.259Z,24.31
2022-07-29T00:28:39.880Z,24.17
2022-07-29T00:31:06.588Z,24.18
2022-07-29T00:33:33.171Z,24.33
2022-07-29T00:36:00.068Z,24.36
2022-07-29T00:38:26.550Z,24.33
2022-07-29T00:40:53.445Z,24.18
2022-07-29T00:43:19.954Z,24.11
2022-07-29T00:45:46.506Z,24.16
2022-07-29T00:48:13.121Z,24.14
2022-07-29T00:50:39.731Z,24.22
2022-07-29T00:53:09.102Z,24.31
2022-07-29T00:55:36.343Z,24.37
2022-07-29T00:58:03.283Z,24.36
2022-07-29T01:00:30.294Z,24.34
2022-07-29T01:02:56.870Z,24.38
2022-07-29T01:05:50.913Z,24.43
2022-07-29T01:08:13.390Z,23.77
2022-07-29T01:10:40.537Z,23.63
2022-07-29T01:13:08.514Z,23.97
2022-07-29T01:15:49.418Z,24.11
2022-07-29T01:18:24.621Z,23.71
2022-07-29T01:21:09.840Z,23.92
2022-07-29T01:23:52.608Z,23.52
2022-07-29T01:26:45.188Z,23.23
2022-07-29T01:29:23.536Z,23.74
2022-07-29T01:32:03.039Z,23.88
2022-07-29T01:34:42.464Z,24.00
2022-07-29T01:37:19.492Z,23.96
2022-07-29T01:39:49.082Z,24.12
2022-07-29T01:42:37.163Z,24.17
2022-07-29T01:45:30.471Z,23.92
2022-07-29T01:48:27.649Z,24.01
2022-07-29T01:51:24.145Z,23.97
2022-07-29T01:54:22.468Z,23.53
2022-07-29T01:56:51.204Z,23.28
2022-07-29T01:59:19.452Z,23.55
2022-07-29T02:01:49.796Z,23.41
2022-07-29T02:04:26.694Z,23.16
2022-07-29T02:07:00.080Z,23.36
2022-07-29T02:09:26.961Z,23.29
2022-07-29T02:11:54.664Z,23.50
2022-07-29T02:14:22.833Z,23.49
2022-07-29T02:16:53.554Z,23.56
2022-07-29T02:19:23.221Z,23.40
2022-07-29T02:21:52.538Z,22.92
2022-07-29T02:24:19.804Z,22.89
2022-07-29T02:26:46.775Z,23.13
2022-07-29T02:29:13.570Z,23.26
2022-07-29T02:31:40.505Z,23.28
2022-07-29T02:34:09.370Z,23.32
2022-07-29T02:36:35.972Z,23.15
2022-07-29T02:39:03.679Z,23.05
2022-07-29T02:41:42.552Z,23.04
2022-07-29T02:44:14.919Z,23.15
2022-07-29T02:46:46.848Z,23.17
2022-07-29T02:49:30.942Z,23.16
2022-07-29T02:52:03.726Z,23.32
2022-07-29T02:54:40.897Z,23.03
2022-07-29T02:57:36.237Z,23.28
2022-07-29T03:00:22.491Z,23.33
2022-07-29T03:02:51.923Z,23.17
2022-07-29T03:05:19.967Z,23.04
2022-07-29T03:07:48.860Z,23.16
2022-07-29T03:10:15.445Z,21.90
2022-07-29T03:12:42.653Z,22.40
2022-07-29T03:15:09.765Z,22.85
2022-07-29T03:17:37.414Z,22.35
2022-07-29T03:20:04.576Z,22.04
2022-07-29T03:22:31.486Z,21.84
2022-07-29T03:24:58.046Z,21.95
2022-07-29T03:27:24.611Z,22.12
2022-07-29T03:29:51.090Z,22.29
2022-07-29T03:32:24.071Z,22.23
2022-07-29T03:34:51.854Z,21.78
2022-07-29T03:37:18.470Z,22.36
2022-07-29T03:39:45.346Z,22.48
2022-07-29T03:42:15.037Z,22.27
2022-07-29T03:44:43.002Z,22.46
2022-07-29T03:47:10.675Z,22.74
2022-07-29T03:49:38.905Z,22.48
2022-07-29T03:52:05.973Z,22.51
2022-07-29T03:54:32.761Z,22.55
2022-07-29T03:57:00.933Z,22.72
2022-07-29T03:59:28.019Z,22.86
2022-07-29T04:01:56.692Z,22.91
2022-07-29T04:04:23.226Z,23.01
2022-07-29T04:06:51.996Z,22.83
2022-07-29T04:09:18.516Z,23.03
2022-07-29T04:11:59.628Z,23.03
2022-07-29T04:14:34.145Z,22.90
2022-07-29T04:17:04.247Z,23.05
2022-07-29T04:19:31.351Z,23.12
2022-07-29T04:21:58.910Z,22.89
2022-07-29T04:24:25.688Z,23.02
2022-07-29T04:26:52.657Z,22.86
2022-07-29T04:29:19.255Z,22.84
2022-07-29T04:31:45.794Z,22.81
2022-07-29T04:34:13.243Z,22.79
2022-07-29T04:36:40.013Z,22.81
2022-07-29T04:39:06.449Z,22.61
2022-07-29T04:41:33.829Z,22.44
2022-07-29T04:44:07.122Z,22.56
2022-07-29T04:46:34.539Z,22.40
2022-07-29T04:49:01.191Z,22.39
2022-07-29T04:51:27.675Z,22.54
2022-07-29T04:53:54.219Z,22.61
2022-07-29T04:56:20.770Z,22.74
2022-07-29T04:58:47.281Z,22.68
2022-07-29T05:01:13.962Z,22.65
2022-07-29T05:03:40.550Z,22.66
2022-07-29T05:06:07.072Z,22.66
2022-07-29T05:08:33.654Z,22.78
2022-07-29T05:11:11.705Z,22.87
2022-07-29T05:13:46.107Z,22.85
2022-07-29T05:16:14.367Z,23.02
2022-07-29T05:18:41.092Z,23.03
2022-07-29T05:21:07.619Z,23.11
2022-07-29T05:23:34.140Z,23.21
2022-07-29T05:26:00.689Z,23.26
2022-07-29T05:28:27.203Z,23.36
2022-07-29T05:30:54.129Z,23.39
2022-07-29T05:33:35.835Z,23.46
2022-07-29T05:36:08.936Z,23.39
2022-07-29T05:38:36.555Z,23.53
2022-07-29T05:41:03.405Z,23.52
2022-07-29T05:43:30.070Z,23.61
2022-07-29T05:45:57.164Z,23.69
2022-07-29T05:48:23.798Z,23.78
2022-07-29T05:50:50.308Z,23.93
2022-07-29T05:53:19.714Z,23.65
2022-07-29T05:55:47.352Z,23.69
2022-07-29T05:58:13.913Z,23.84
2022-07-29T06:00:40.864Z,24.05
2022-07-29T06:03:07.442Z,24.10
2022-07-29T06:05:33.945Z,24.01
2022-07-29T06:08:00.497Z,24.41
2022-07-29T06:10:27.800Z,24.40
2022-07-29T06:12:54.722Z,24.58
2022-07-29T06:15:21.242Z,24.59
2022-07-29T06:17:59.183Z,24.53
2022-07-29T06:20:27.742Z,24.67
2022-07-29T06:22:54.153Z,24.83
2022-07-29T06:25:20.707Z,24.96
2022-07-29T06:27:47.579Z,25.44
2022-07-29T06:30:14.186Z,25.57
2022-07-29T06:32:43.189Z,25.80
2022-07-29T06:35:37.871Z,25.98
2022-07-29T06:37:59.497Z,26.03
2022-07-29T06:40:45.370Z,26.05
2022-07-29T06:43:11.940Z,26.03
2022-07-29T06:45:42.181Z,26.11
2022-07-29T06:48:09.719Z,25.84
2022-07-29T06:50:36.330Z,26.05
2022-07-29T06:53:02.843Z,26.16
2022-07-29T06:55:29.318Z,26.14
2022-07-29T06:57:55.824Z,26.17
2022-07-29T07:00:22.414Z,26.32
2022-07-29T07:02:49.013Z,26.28
2022-07-29T07:05:15.648Z,26.31
2022-07-29T07:07:42.233Z,26.37
2022-07-29T07:10:09.161Z,25.81
2022-07-29T07:12:35.690Z,26.29
2022-07-29T07:15:02.122Z,26.46
2022-07-29T07:17:28.655Z,26.58
2022-07-29T07:19:55.673Z,26.69
2022-07-29T07:22:22.255Z,26.80
2022-07-29T07:24:48.749Z,26.83
2022-07-29T07:27:15.276Z,27.15
2022-07-29T07:29:44.102Z,26.85
2022-07-29T07:32:11.198Z,26.66
2022-07-29T07:34:38.833Z,27.03
2022-07-29T07:37:06.132Z,27.29
2022-07-29T07:39:32.621Z,27.35
2022-07-29T07:41:59.154Z,27.40
2022-07-29T07:44:25.688Z,27.49
2022-07-29T07:46:52.222Z,27.14
2022-07-29T07:49:19.726Z,27.42
2022-07-29T07:51:50.499Z,27.83
2022-07-29T07:54:18.262Z,28.05
2022-07-29T07:56:45.240Z,28.53
2022-07-29T07:59:11.812Z,29.86
2022-07-29T08:01:47.542Z,30.43
2022-07-29T08:04:17.050Z,32.39
2022-07-29T08:06:44.345Z,32.56
2022-07-29T08:09:28.169Z,30.91
2022-07-29T08:11:55.189Z,30.79
2022-07-29T08:14:22.021Z,30.70
2022-07-29T08:16:49.098Z,29.98
2022-07-29T08:19:15.671Z,29.85
2022-07-29T08:21:42.170Z,29.78
2022-07-29T08:24:27.442Z,29.31
2022-07-29T08:26:53.972Z,29.41
2022-07-29T08:29:20.476Z,29.58
2022-07-29T08:31:47.098Z,29.01
2022-07-29T08:34:13.699Z,29.10
2022-07-29T08:36:40.239Z,29.15
2022-07-29T08:39:07.143Z,28.91
2022-07-29T08:41:33.585Z,28.63
2022-07-29T08:44:00.108Z,28.26
2022-07-29T08:46:26.579Z,28.39
2022-07-29T08:48:53.130Z,28.77
2022-07-29T08:51:20.862Z,28.17
2022-07-29T08:53:49.365Z,28.00
2022-07-29T08:56:19.953Z,28.09
2022-07-29T08:58:49.886Z,28.29
2022-07-29T09:01:23.498Z,27.85
2022-07-29T09:04:04.897Z,27.87
2022-07-29T09:06:34.386Z,27.98
2022-07-29T09:09:01.441Z,27.82
2022-07-29T09:11:28.501Z,27.65
2022-07-29T09:13:55.135Z,28.00
2022-07-29T09:16:43.859Z,27.78
2022-07-29T09:19:21.069Z,28.17
2022-07-29T09:21:59.870Z,28.01
2022-07-29T09:24:41.101Z,28.48
2022-07-29T09:27:17.945Z,28.79
2022-07-29T09:29:44.510Z,27.43
2022-07-29T09:32:14.081Z,28.53
2022-07-29T09:34:40.550Z,28.85
2022-07-29T09:37:07.133Z,28.94
2022-07-29T09:39:38.370Z,29.16
2022-07-29T09:42:06.928Z,28.80
2022-07-29T09:44:49.058Z,28.53
2022-07-29T09:47:16.666Z,28.48
2022-07-29T09:50:00.155Z,28.49
2022-07-29T09:52:31.011Z,27.78
2022-07-29T09:55:08.360Z,28.89
2022-07-29T09:57:34.966Z,28.84
2022-07-29T10:00:11.846Z,28.30
2022-07-29T10:02:40.235Z,29.43
2022-07-29T10:05:17.038Z,29.72
2022-07-29T10:07:48.307Z,29.64
2022-07-29T10:10:27.806Z,28.82
2022-07-29T10:12:55.737Z,29.31
2022-07-29T10:15:24.223Z,29.61
2022-07-29T10:17:52.434Z,28.87
2022-07-29T10:20:19.523Z,29.40
2022-07-29T10:22:53.362Z,29.17
2022-07-29T10:25:21.377Z,28.92
2022-07-29T10:27:48.707Z,29.32
2022-07-29T10:30:16.599Z,29.05
2022-07-29T10:33:23.775Z,28.97
2022-07-29T10:36:11.196Z,28.83
2022-07-29T10:39:06.403Z,28.77
2022-07-29T10:42:11.354Z,28.00
2022-07-29T10:44:41.753Z,28.89
2022-07-29T10:47:08.412Z,29.00
2022-07-29T10:49:36.610Z,28.79
2022-07-29T10:52:09.507Z,28.59
2022-07-29T10:54:43.958Z,28.86
2022-07-29T10:57:14.473Z,28.39
2022-07-29T10:59:42.886Z,28.44
2022-07-29T11:02:41.780Z,28.42
2022-07-29T11:05:20.315Z,27.96
2022-07-29T11:08:09.491Z,28.00
2022-07-29T11:10:39.812Z,28.11
2022-07-29T11:13:06.345Z,28.50
2022-07-29T11:15:56.867Z,27.99
2022-07-29T11:18:23.755Z,28.15
2022-07-29T11:20:54.158Z,28.43
2022-07-29T11:23:33.759Z,28.39
2022-07-29T11:29:25.614Z,27.81
2022-07-29T11:31:56.981Z,28.00
2022-07-29T11:34:33.411Z,27.65
2022-07-29T11:37:10.256Z,27.28
2022-07-29T11:39:41.275Z,26.50
2022-07-29T11:42:32.063Z,25.48
2022-07-29T11:45:42.876Z,25.64
2022-07-29T11:50:48.191Z,26.52
2022-07-29T11:53:16.253Z,26.28
2022-07-29T11:55:51.140Z,26.08
2022-07-29T11:58:25.015Z,26.34
2022-07-29T12:00:52.795Z,26.67
2022-07-29T12:03:34.826Z,26.66
2022-07-29T12:06:02.351Z,26.77
2022-07-29T12:07:02.107Z,26.34
2022-07-29T12:08:28.944Z,26.72
2022-07-29T12:10:55.458Z,27.06
2022-07-29T12:13:22.370Z,27.19
2022-07-29T12:15:57.698Z,27.20
2022-07-29T12:18:27.753Z,27.53
2022-07-29T12:20:59.411Z,28.47
2022-07-29T12:23:34.929Z,28.92
2022-07-29T12:26:05.546Z,27.93
2022-07-29T12:28:38.400Z,27.78
2022-07-29T12:31:05.767Z,27.82
2022-07-29T12:33:32.464Z,28.95
2022-07-29T12:36:07.550Z,29.93
2022-07-29T12:38:36.095Z,31.13
2022-07-29T12:41:02.765Z,30.37
2022-07-29T12:43:31.190Z,29.35
2022-07-29T12:45:58.325Z,28.61
2022-07-29T12:48:38.885Z,28.42
2022-07-29T12:51:07.681Z,28.16
2022-07-29T12:53:34.532Z,27.89
2022-07-29T12:56:15.583Z,27.55
2022-07-29T12:58:51.415Z,27.53
2022-07-29T13:01:20.334Z,27.52
2022-07-29T13:03:57.006Z,27.38
2022-07-29T13:06:49.648Z,27.36
2022-07-29T13:09:18.599Z,27.17
2022-07-29T13:11:48.785Z,27.26
2022-07-29T13:14:32.518Z,27.34
2022-07-29T13:17:03.639Z,27.41
2022-07-29T13:19:35.363Z,27.41
2022-07-29T13:22:01.985Z,27.52
2022-07-29T13:24:28.621Z,27.42
2022-07-29T13:26:56.651Z,27.45
2022-07-29T13:29:23.132Z,27.43
2022-07-29T13:31:49.916Z,27.39
2022-07-29T13:34:16.468Z,27.18
2022-07-29T13:36:42.998Z,26.85
2022-07-29T13:39:09.508Z,26.53
2022-07-29T13:41:36.114Z,25.96
2022-07-29T13:44:03.591Z,25.82
2022-07-29T13:46:30.084Z,25.19
2022-07-29T13:48:56.637Z,25.01
2022-07-29T13:51:23.995Z,24.43
2022-07-29T13:53:50.475Z,24.26
2022-07-29T13:56:17.087Z,24.21
2022-07-29T13:58:43.553Z,24.29
2022-07-29T14:01:10.171Z,24.26
2022-07-29T14:03:39.198Z,23.98
2022-07-29T14:06:06.776Z,24.69
2022-07-29T14:08:33.380Z,25.04
2022-07-29T14:10:59.824Z,24.84
2022-07-29T14:13:26.517Z,24.96
2022-07-29T14:15:53.644Z,25.19
2022-07-29T14:18:20.140Z,24.99
2022-07-29T14:20:46.625Z,25.69
2022-07-29T14:23:13.138Z,25.98
2022-07-29T14:25:42.756Z,26.15
2022-07-29T14:28:11.032Z,26.22
2022-07-29T14:30:38.171Z,26.41
2022-07-29T14:33:04.828Z,26.45
2022-07-29T14:35:31.368Z,26.32
2022-07-29T14:37:58.193Z,26.22
2022-07-29T14:40:24.836Z,25.77
2022-07-29T14:42:51.381Z,25.81
2022-07-29T14:45:17.938Z,25.86
2022-07-29T14:47:44.523Z,26.26
2022-07-29T14:50:11.511Z,26.16
2022-07-29T14:52:38.161Z,26.24
2022-07-29T14:55:05.406Z,26.65
2022-07-29T14:57:42.802Z,26.29
2022-07-29T15:00:10.646Z,26.70
2022-07-29T15:03:00.394Z,26.82
2022-07-29T15:05:23.704Z,26.96
2022-07-29T15:07:50.360Z,27.01
2022-07-29T15:10:16.853Z,27.07
2022-07-29T15:12:43.477Z,27.07
2022-07-29T15:15:10.040Z,27.06
2022-07-29T15:17:36.619Z,27.07
2022-07-29T15:20:03.633Z,27.07
2022-07-29T15:22:30.170Z,26.85
2022-07-29T15:24:56.880Z,26.75
2022-07-29T15:27:23.324Z,26.58
2022-07-29T15:29:49.949Z,26.65
2022-07-29T15:32:16.485Z,26.54
2022-07-29T15:34:43.198Z,26.52
2022-07-29T15:37:11.747Z,26.66
2022-07-29T15:39:38.302Z,26.74
2022-07-29T15:42:05.129Z,26.63
2022-07-29T15:44:31.717Z,26.37
2022-07-29T15:47:04.116Z,26.40
2022-07-29T15:49:48.532Z,26.33
2022-07-29T15:52:25.461Z,26.46
2022-07-29T15:54:53.711Z,26.49
2022-07-29T15:57:20.201Z,26.82
2022-07-29T15:59:46.764Z,26.78
2022-07-29T16:02:13.302Z,26.87
2022-07-29T16:04:39.821Z,26.93
2022-07-29T16:07:07.045Z,27.00
2022-07-29T16:09:33.608Z,27.03
2022-07-29T16:12:00.259Z,26.68
2022-07-29T16:14:28.411Z,26.64
2022-07-29T16:16:55.598Z,26.81
2022-07-29T16:19:22.447Z,26.89
2022-07-29T16:21:48.939Z,26.94
2022-07-29T16:24:15.476Z,26.96
2022-07-29T16:26:42.030Z,27.08
2022-07-29T16:29:08.600Z,26.89
2022-07-29T16:31:35.252Z,26.90
2022-07-29T16:34:02.508Z,27.06
2022-07-29T16:36:28.977Z,26.99
2022-07-29T16:38:55.518Z,26.92
2022-07-29T16:41:22.062Z,27.14
2022-07-29T16:43:48.589Z,27.20
2022-07-29T16:46:19.042Z,27.09
2022-07-29T16:48:45.853Z,27.18
2022-07-29T16:51:14.285Z,27.22
2022-07-29T16:53:41.451Z,27.19
2022-07-29T16:56:08.554Z,27.05
2022-07-29T16:58:43.590Z,27.08
2022-07-29T17:01:10.584Z,27.03
2022-07-29T17:03:59.934Z,26.73
2022-07-29T17:06:27.361Z,26.93
2022-07-29T17:08:53.978Z,26.97
2022-07-29T17:11:20.468Z,27.00
2022-07-29T17:13:47.038Z,27.20
2022-07-29T17:16:13.562Z,26.98
2022-07-29T17:18:40.043Z,27.10
2022-07-29T17:21:06.729Z,27.02
2022-07-29T17:23:33.216Z,26.67
2022-07-29T17:25:59.702Z,26.86
2022-07-29T17:28:26.201Z,26.89
2022-07-29T17:30:53.242Z,26.98
2022-07-29T17:33:19.931Z,27.04
2022-07-29T17:36:04.809Z,27.01
2022-07-29T17:38:31.297Z,27.06
2022-07-29T17:40:57.917Z,26.99
2022-07-29T17:43:24.478Z,27.12
2022-07-29T17:45:51.395Z,27.11
2022-07-29T17:48:18.880Z,27.08
2022-07-29T17:50:46.849Z,27.09
2022-07-29T17:53:16.306Z,27.02
2022-07-29T17:55:45.664Z,26.93
2022-07-29T17:58:12.431Z,27.04
2022-07-29T18:00:39.171Z,26.88
2022-07-29T18:03:06.868Z,26.98
2022-07-29T18:05:33.487Z,26.98
2022-07-29T18:08:00.007Z,26.97
2022-07-29T18:10:26.699Z,26.81
2022-07-29T18:12:53.446Z,26.85
2022-07-29T18:15:19.979Z,26.90
2022-07-29T18:17:57.148Z,26.75
2022-07-29T18:20:25.852Z,26.66
2022-07-29T18:22:52.524Z,26.77
2022-07-29T18:25:19.082Z,26.71
2022-07-29T18:27:45.625Z,26.78
2022-07-29T18:30:12.167Z,26.79
2022-07-29T18:32:38.765Z,26.74
2022-07-29T18:35:06.299Z,26.75
2022-07-29T18:38:01.384Z,26.68
2022-07-29T18:40:23.619Z,26.45
2022-07-29T18:42:50.133Z,26.02
2022-07-29T18:45:19.202Z,25.74
2022-07-29T18:47:47.563Z,25.99
2022-07-29T18:50:14.612Z,25.91
2022-07-29T18:52:41.299Z,26.16
2022-07-29T18:55:08.383Z,26.00
2022-07-29T18:57:55.306Z,25.81
2022-07-29T19:00:22.488Z,25.80
2022-07-29T19:02:49.379Z,25.68
2022-07-29T19:05:16.359Z,25.55
2022-07-29T19:07:42.877Z,25.46
2022-07-29T19:10:09.944Z,25.35
2022-07-29T19:12:36.505Z,25.32
2022-07-29T19:15:03.450Z,25.19
2022-07-29T19:17:30.029Z,25.09
2022-07-29T19:19:56.559Z,25.18
2022-07-29T19:22:23.302Z,25.27
2022-07-29T19:24:50.768Z,25.35
2022-07-29T19:27:17.433Z,25.25
2022-07-29T19:29:44.054Z,25.25
2022-07-29T19:32:10.555Z,25.49
2022-07-29T19:34:37.493Z,25.57
2022-07-29T19:37:04.666Z,25.61
2022-07-29T19:39:34.793Z,25.69
2022-07-29T19:42:03.544Z,25.71
2022-07-29T19:44:30.318Z,25.76
2022-07-29T19:46:59.357Z,25.77
2022-07-29T19:49:26.188Z,25.78
2022-07-29T19:51:53.388Z,25.81
2022-07-29T19:54:21.017Z,25.63
2022-07-29T19:56:47.482Z,25.55
2022-07-29T19:59:14.551Z,25.24
2022-07-29T20:01:41.240Z,25.10
2022-07-29T20:04:07.804Z,25.31
2022-07-29T20:06:34.422Z,25.32
2022-07-29T20:09:00.913Z,25.08
2022-07-29T20:11:29.576Z,25.12
2022-07-29T20:13:56.119Z,25.14
2022-07-29T20:16:22.691Z,25.06
2022-07-29T20:18:51.998Z,25.13
2022-07-29T20:21:18.517Z,24.81
2022-07-29T20:23:45.876Z,24.75
2022-07-29T20:26:12.700Z,24.72
2022-07-29T20:28:40.183Z,24.77
2022-07-29T20:31:06.913Z,24.88
2022-07-29T20:33:33.570Z,24.74
2022-07-29T20:36:00.107Z,24.61
2022-07-29T20:38:26.772Z,24.36
2022-07-29T20:40:58.421Z,24.57
2022-07-29T20:43:26.139Z,24.51
2022-07-29T20:45:52.801Z,24.48
2022-07-29T20:48:19.503Z,24.55
2022-07-29T20:50:47.529Z,24.57
2022-07-29T20:53:14.800Z,24.49
2022-07-29T20:55:41.312Z,24.56
2022-07-29T20:58:07.897Z,24.49
2022-07-29T21:00:34.429Z,24.48
2022-07-29T21:03:01.095Z,24.62
2022-07-29T21:05:27.774Z,24.61
2022-07-29T21:07:57.973Z,24.43
2022-07-29T21:10:24.729Z,24.44
2022-07-29T21:12:51.274Z,24.42
2022-07-29T21:15:20.603Z,24.52
2022-07-29T21:17:47.775Z,24.55
2022-07-29T21:20:18.528Z,24.39
2022-07-29T21:22:45.184Z,24.41
2022-07-29T21:25:14.251Z,24.40
2022-07-29T21:28:02.808Z,24.37
2022-07-29T21:30:29.347Z,24.35
2022-07-29T21:32:56.009Z,24.23
2022-07-29T21:36:01.540Z,24.23
2022-07-29T21:38:09.182Z,24.35
2022-07-29T21:40:38.525Z,24.37
2022-07-29T21:43:05.128Z,24.11
2022-07-29T21:45:31.705Z,24.03
2022-07-29T21:47:58.237Z,23.92
2022-07-29T21:50:24.757Z,23.78
2022-07-29T21:52:51.483Z,23.63
2022-07-29T21:55:18.032Z,23.53
2022-07-29T21:57:45.916Z,23.45
2022-07-29T22:00:15.985Z,23.54
2022-07-29T22:02:43.462Z,23.57
2022-07-29T22:05:10.986Z,23.43
2022-07-29T22:07:56.585Z,23.57
2022-07-29T22:10:25.634Z,23.48
2022-07-29T22:12:53.329Z,23.46
2022-07-29T22:15:20.048Z,23.51
2022-07-29T22:17:47.028Z,23.55
2022-07-29T22:20:13.646Z,23.38
2022-07-29T22:22:40.877Z,23.14
2022-07-29T22:25:07.820Z,23.29
2022-07-29T22:27:34.463Z,23.28
2022-07-29T22:30:00.932Z,23.19
2022-07-29T22:32:32.938Z,23.36
2022-07-29T22:34:59.439Z,23.42
2022-07-29T22:37:28.308Z,23.35
2022-07-29T22:39:54.784Z,23.16
2022-07-29T22:42:21.338Z,23.05
2022-07-29T22:44:47.861Z,23.07
2022-07-29T22:47:14.481Z,23.20
2022-07-29T22:49:41.130Z,22.93
2022-07-29T22:52:07.666Z,23.05
2022-07-29T22:54:34.208Z,23.15
2022-07-29T22:57:01.098Z,23.21
2022-07-29T22:59:27.785Z,23.28
2022-07-29T23:01:54.484Z,23.45
2022-07-29T23:04:23.915Z,23.43
2022-07-29T23:06:51.039Z,23.49
2022-07-29T23:09:17.548Z,23.30
2022-07-29T23:11:44.064Z,23.23
2022-07-29T23:14:10.596Z,22.91
2022-07-29T23:16:37.171Z,22.61
2022-07-29T23:19:03.701Z,22.94
2022-07-29T23:21:30.201Z,23.09
2022-07-29T23:23:56.764Z,22.66
2022-07-29T23:26:23.285Z,22.66
2022-07-29T23:28:49.805Z,22.97
2022-07-29T23:31:16.437Z,23.17
2022-07-29T23:33:43.079Z,23.26
2022-07-29T23:36:09.702Z,23.35
2022-07-29T23:38:40.858Z,23.24
2022-07-29T23:41:09.661Z,23.30
2022-07-29T23:43:37.147Z,23.32
2022-07-29T23:46:04.825Z,23.19
2022-07-29T23:48:32.961Z,23.31
2022-07-29T23:51:01.021Z,22.99
2022-07-29T23:53:28.201Z,22.48
2022-07-29T23:55:55.666Z,22.45
2022-07-29T23:58:22.377Z,22.66
